Time;durP1;ratioP1;P1;durP2;ratioP2;P2;SDS_P1;SDS_P2;PMS_P1;PMS_P2;Temp;Humidity;BMP_temperature;BMP_pressure;BME280_temperature;BME280_humidity;BME280_pressure;Samples;Min_cycle;Max_cycle;Signal;HPM_P1;HPM_P2
2023/01/15 00:01:49;;;;;;;16.67;2.05;;;7.10;99.90;;;;;;4975904;28;20255;-63
2023/01/15 00:04:14;;;;;;;9.90;1.85;;;7.10;99.90;;;;;;5002651;28;20056;-62
2023/01/15 00:06:41;;;;;;;15.20;2.38;;;7.10;99.90;;;;;;4989664;28;20069;-62
2023/01/15 00:09:12;;;;;;;13.18;2.20;;;7.10;99.90;;;;;;4981764;28;20042;-63
2023/01/15 00:11:37;;;;;;;9.40;2.05;;;7.10;99.90;;;;;;4985828;28;20382;-62
2023/01/15 00:14:03;;;;;;;10.30;2.63;;;7.10;99.90;;;;;;4983874;28;20072;-63
2023/01/15 00:16:29;;;;;;;13.10;2.92;;;7.10;99.90;;;;;;4986925;28;20053;-63
2023/01/15 00:19:00;;;;;;;13.55;2.70;;;7.10;99.90;;;;;;4985703;28;20081;-63
2023/01/15 00:21:27;;;;;;;11.68;2.03;;;7.10;99.90;;;;;;5003535;28;20069;-62
2023/01/15 00:29:24;;;;;;;23.50;3.85;;;7.10;99.90;;;;;;4986399;28;20042;-62
2023/01/15 00:32:05;;;;;;;10.35;2.67;;;7.10;99.90;;;;;;4979093;28;20428;-62
2023/01/15 00:34:32;;;;;;;10.00;2.28;;;7.10;99.90;;;;;;4987197;28;20081;-62
2023/01/15 00:36:58;;;;;;;15.30;2.92;;;7.20;99.90;;;;;;4987534;28;20059;-62
2023/01/15 00:39:25;;;;;;;14.55;2.97;;;7.10;99.90;;;;;;5003559;28;20131;-62
2023/01/15 00:41:51;;;;;;;12.68;2.55;;;7.20;99.90;;;;;;4998446;28;20432;-62
2023/01/15 00:44:17;;;;;;;14.25;2.65;;;7.20;99.90;;;;;;4987279;28;20052;-62
2023/01/15 00:46:43;;;;;;;13.20;2.40;;;7.20;99.90;;;;;;4990662;28;20432;-62
2023/01/15 00:49:09;;;;;;;17.80;4.70;;;7.10;99.90;;;;;;5008371;28;20221;-62
2023/01/15 00:51:35;;;;;;;17.23;2.10;;;7.10;99.90;;;;;;4984034;28;20034;-62
2023/01/15 00:54:01;;;;;;;14.68;2.85;;;7.10;99.90;;;;;;4967342;28;20049;-62
2023/01/15 00:56:27;;;;;;;17.52;2.22;;;7.00;99.90;;;;;;4988105;28;20044;-62
2023/01/15 00:58:53;;;;;;;15.82;2.80;;;7.10;99.90;;;;;;4980839;28;20396;-63
2023/01/15 01:01:19;;;;;;;14.73;3.03;;;7.10;99.90;;;;;;4986749;28;20480;-62
2023/01/15 01:03:49;;;;;;;15.68;3.53;;;7.10;99.90;;;;;;4969047;28;20180;-63
2023/01/15 01:06:15;;;;;;;19.85;4.10;;;7.10;99.90;;;;;;5003634;28;20049;-62
2023/01/15 01:08:42;;;;;;;17.38;3.25;;;7.10;99.90;;;;;;5007011;28;20069;-62
2023/01/15 01:11:10;;;;;;;13.98;2.78;;;7.10;99.90;;;;;;4987656;28;20504;-62
2023/01/15 01:13:37;;;;;;;10.07;1.90;;;7.00;99.90;;;;;;4985865;28;20038;-63
2023/01/15 01:16:04;;;;;;;13.45;2.40;;;7.00;99.90;;;;;;4983322;28;20278;-60
2023/01/15 01:18:30;;;;;;;10.00;1.95;;;7.00;99.90;;;;;;4988467;28;20037;-63
2023/01/15 01:20:56;;;;;;;11.07;2.90;;;7.00;99.90;;;;;;5002904;28;20412;-63
2023/01/15 01:23:23;;;;;;;15.60;2.30;;;7.00;99.90;;;;;;5004895;28;20092;-62
2023/01/15 01:25:49;;;;;;;16.40;2.60;;;7.00;99.90;;;;;;4990057;28;20131;-63
2023/01/15 01:28:15;;;;;;;15.00;2.53;;;7.00;99.90;;;;;;4983673;28;20049;-62
2023/01/15 01:30:41;;;;;;;13.00;2.47;;;7.00;99.90;;;;;;4967506;28;20038;-63
2023/01/15 01:33:07;;;;;;;13.88;2.55;;;7.00;99.90;;;;;;4983029;28;20046;-63
2023/01/15 01:35:33;;;;;;;14.95;3.47;;;7.00;99.90;;;;;;4979786;28;20042;-61
2023/01/15 01:37:59;;;;;;;14.35;2.30;;;7.00;99.90;;;;;;4996620;28;20049;-62
2023/01/15 01:40:24;;;;;;;17.13;3.20;;;7.00;99.90;;;;;;4999653;28;20039;-62
2023/01/15 01:42:50;;;;;;;16.52;3.13;;;7.00;99.90;;;;;;4972001;28;20269;-63
2023/01/15 01:45:23;;;;;;;9.43;2.17;;;7.00;99.90;;;;;;4988427;28;20042;-63
2023/01/15 01:47:51;;;;;;;13.93;2.83;;;7.00;99.90;;;;;;4998202;28;20041;-62
2023/01/15 01:50:17;;;;;;;13.27;3.25;;;7.00;99.90;;;;;;5003279;28;20041;-62
2023/01/15 01:52:52;;;;;;;12.63;2.72;;;7.00;99.90;;;;;;5007089;28;20038;-63
2023/01/15 01:55:22;;;;;;;9.57;2.17;;;7.00;99.90;;;;;;4998904;28;20049;-62
2023/01/15 01:57:50;;;;;;;9.68;2.20;;;7.00;99.90;;;;;;4980033;28;20122;-62
2023/01/15 02:00:16;;;;;;;18.48;4.28;;;7.00;99.90;;;;;;5001784;28;20038;-62
2023/01/15 02:02:45;;;;;;;14.02;2.63;;;7.00;99.90;;;;;;5000831;28;20046;-63
2023/01/15 02:05:36;;;;;;;13.40;2.28;;;7.00;99.90;;;;;;4983851;28;20095;-62
2023/01/15 02:08:03;;;;;;;12.35;2.92;;;7.00;99.90;;;;;;4983563;28;20037;-62
2023/01/15 02:10:29;;;;;;;16.77;2.45;;;7.00;99.90;;;;;;4988362;28;20038;-62
2023/01/15 02:13:18;;;;;;;15.77;2.35;;;6.90;99.90;;;;;;4986796;28;20049;-62
2023/01/15 02:15:52;;;;;;;6.90;1.98;;;6.90;99.90;;;;;;4981824;28;20042;-62
2023/01/15 02:18:33;;;;;;;13.15;2.60;;;6.90;99.90;;;;;;4998305;28;20077;-63
2023/01/15 02:21:04;;;;;;;9.68;2.38;;;6.90;99.90;;;;;;4980736;28;20037;-61
2023/01/15 02:23:46;;;;;;;11.48;2.35;;;6.90;99.90;;;;;;5006178;28;20409;-62
2023/01/15 02:26:43;;;;;;;13.00;2.88;;;6.90;99.90;;;;;;4984116;28;20093;-63
2023/01/15 02:29:16;;;;;;;14.35;2.78;;;6.90;99.90;;;;;;5004453;28;20192;-63
2023/01/15 02:31:48;;;;;;;14.10;2.72;;;6.90;99.90;;;;;;4990881;28;20389;-62
2023/01/15 02:34:29;;;;;;;10.40;1.98;;;6.90;99.90;;;;;;4983309;28;20420;-62
2023/01/15 02:37:09;;;;;;;9.57;2.30;;;6.90;99.90;;;;;;4984566;28;20045;-62
2023/01/15 02:39:39;;;;;;;12.02;3.38;;;6.90;99.90;;;;;;4983729;28;20049;-63
2023/01/15 02:42:08;;;;;;;19.73;2.38;;;6.90;99.90;;;;;;4979734;28;20053;-63
2023/01/15 02:44:37;;;;;;;12.05;2.13;;;6.90;99.90;;;;;;4999522;28;20041;-62
2023/01/15 02:47:06;;;;;;;14.45;2.63;;;7.00;99.90;;;;;;4974727;28;20041;-61
2023/01/15 02:49:32;;;;;;;18.58;3.60;;;6.90;99.90;;;;;;4978598;28;20121;-63
2023/01/15 02:52:16;;;;;;;14.15;2.58;;;6.90;99.90;;;;;;4980286;28;20183;-63
2023/01/15 02:55:09;;;;;;;12.73;1.90;;;6.90;99.90;;;;;;4999555;28;20060;-63
2023/01/15 02:57:37;;;;;;;14.17;2.50;;;6.80;99.90;;;;;;4967878;28;20042;-63
2023/01/15 03:00:08;;;;;;;19.25;2.53;;;6.80;99.90;;;;;;4980081;28;20042;-63
2023/01/15 03:02:40;;;;;;;12.93;2.30;;;6.70;99.90;;;;;;4981527;28;20037;-62
2023/01/15 03:05:38;;;;;;;12.63;2.58;;;6.70;99.90;;;;;;4983811;28;20060;-63
2023/01/15 03:08:07;;;;;;;17.20;2.65;;;6.70;99.90;;;;;;4996947;28;20053;-63
2023/01/15 03:10:51;;;;;;;14.75;2.70;;;6.70;99.90;;;;;;4983997;28;20060;-63
2023/01/15 03:13:23;;;;;;;;;;;6.70;99.90;;;;;;4985100;28;20040;-63
2023/01/15 03:19:06;;;;;;;12.77;2.80;;;6.70;99.90;;;;;;4996695;28;20065;-63
2023/01/15 03:21:51;;;;;;;13.02;2.20;;;6.70;99.90;;;;;;4993685;28;20041;-62
2023/01/15 03:24:24;;;;;;;15.27;3.38;;;6.70;99.90;;;;;;5003445;28;20048;-61
2023/01/15 03:26:51;;;;;;;10.40;2.78;;;6.70;99.90;;;;;;4999957;28;20129;-63
2023/01/15 03:29:18;;;;;;;11.13;2.45;;;6.70;99.90;;;;;;4988892;28;20042;-62
2023/01/15 03:31:43;;;;;;;13.70;2.13;;;6.70;99.90;;;;;;4991358;28;20124;-63
2023/01/15 03:34:10;;;;;;;16.33;2.42;;;6.70;99.90;;;;;;4985792;28;20343;-63
2023/01/15 03:36:36;;;;;;;15.93;2.40;;;6.70;99.90;;;;;;4984773;28;20077;-63
2023/01/15 03:39:04;;;;;;;13.65;2.80;;;6.60;99.90;;;;;;5003916;28;20307;-62
2023/01/15 03:41:41;;;;;;;13.35;2.75;;;6.60;99.90;;;;;;4993390;28;20048;-63
2023/01/15 03:44:22;;;;;;;11.55;2.42;;;6.60;99.90;;;;;;4983546;28;20050;-63
2023/01/15 03:46:59;;;;;;;13.55;2.45;;;6.60;99.90;;;;;;4990078;28;20041;-63
2023/01/15 03:49:34;;;;;;;13.77;2.50;;;6.60;99.90;;;;;;4975289;28;20081;-63
2023/01/15 03:52:17;;;;;;;14.13;2.55;;;6.60;99.90;;;;;;4979134;28;20053;-63
2023/01/15 03:55:14;;;;;;;9.07;2.00;;;6.60;99.90;;;;;;4983906;28;20413;-63
2023/01/15 03:57:50;;;;;;;15.27;3.00;;;6.60;99.90;;;;;;4990062;28;20132;-63
2023/01/15 04:00:39;;;;;;;18.90;2.90;;;6.60;99.90;;;;;;4993075;28;20046;-63
2023/01/15 04:03:07;;;;;;;9.50;2.03;;;6.60;99.90;;;;;;5005722;28;20046;-62
2023/01/15 04:05:35;;;;;;;16.08;2.55;;;6.60;99.90;;;;;;4980316;28;20065;-62
2023/01/15 04:08:02;;;;;;;15.13;2.33;;;6.50;99.90;;;;;;4986693;28;20081;-63
2023/01/15 04:10:28;;;;;;;9.82;2.22;;;6.50;99.90;;;;;;5000811;28;20145;-62
2023/01/15 04:12:54;;;;;;;13.02;2.15;;;6.50;99.90;;;;;;4982415;28;20120;-62
2023/01/15 04:15:19;;;;;;;11.10;2.85;;;6.50;99.90;;;;;;5002971;28;20442;-62
2023/01/15 04:17:45;;;;;;;11.65;2.38;;;6.50;99.90;;;;;;4988040;28;20038;-63
2023/01/15 04:20:11;;;;;;;12.38;2.67;;;6.50;99.90;;;;;;4986492;28;20274;-63
2023/01/15 04:22:37;;;;;;;15.20;4.72;;;6.50;99.90;;;;;;5007554;28;20034;-63
2023/01/15 04:25:05;;;;;;;20.20;2.65;;;6.50;99.90;;;;;;4975824;28;20038;-63
2023/01/15 04:27:30;;;;;;;15.38;3.75;;;6.50;99.90;;;;;;4997180;28;20068;-63
2023/01/15 04:29:56;;;;;;;14.63;2.47;;;6.50;99.90;;;;;;4989994;28;20488;-62
2023/01/15 04:32:22;;;;;;;12.05;2.00;;;6.50;99.90;;;;;;5008287;28;20081;-62
2023/01/15 04:34:48;;;;;;;12.32;3.75;;;6.50;99.90;;;;;;5007691;28;20441;-62
2023/01/15 04:37:15;;;;;;;15.40;2.70;;;6.40;99.90;;;;;;4991690;28;20046;-62
2023/01/15 04:39:41;;;;;;;11.27;1.98;;;6.40;99.90;;;;;;4998751;28;20052;-63
2023/01/15 04:44:55;;;;;;;13.35;2.35;;;6.40;99.90;;;;;;4987976;28;20072;-56
2023/01/15 04:47:21;;;;;;;12.10;2.80;;;6.40;99.90;;;;;;4989620;28;20495;-57
2023/01/15 04:49:47;;;;;;;15.27;1.75;;;6.40;99.90;;;;;;4975695;28;20049;-56
2023/01/15 04:52:14;;;;;;;23.58;2.90;;;6.40;99.90;;;;;;4970038;28;20413;-56
2023/01/15 04:54:39;;;;;;;14.50;2.58;;;6.40;99.90;;;;;;4975206;28;20050;-56
2023/01/15 04:57:05;;;;;;;12.50;2.55;;;6.40;99.90;;;;;;4964345;28;20088;-54
2023/01/15 04:59:31;;;;;;;13.23;2.72;;;6.40;99.90;;;;;;4967781;28;20046;-57
2023/01/15 05:01:57;;;;;;;11.25;2.35;;;6.40;99.90;;;;;;4994552;28;20046;-57
2023/01/15 05:04:23;;;;;;;17.73;2.70;;;6.30;99.90;;;;;;4969376;28;20047;-56
2023/01/15 05:06:49;;;;;;;15.95;2.45;;;6.30;99.90;;;;;;4993325;28;20377;-57
2023/01/15 05:09:15;;;;;;;11.13;3.30;;;6.30;99.90;;;;;;4971246;28;20050;-57
2023/01/15 05:11:41;;;;;;;12.45;2.45;;;6.30;99.90;;;;;;5001286;28;20039;-57
2023/01/15 05:14:06;;;;;;;15.25;3.22;;;6.30;99.90;;;;;;4998842;28;20096;-58
2023/01/15 05:16:33;;;;;;;13.65;2.25;;;6.30;99.90;;;;;;4970088;28;20038;-55
2023/01/15 05:19:02;;;;;;;11.55;1.67;;;6.20;99.90;;;;;;4979846;28;20047;-58
2023/01/15 05:21:33;;;;;;;13.68;2.40;;;6.20;99.90;;;;;;4967273;28;20057;-56
2023/01/15 05:24:01;;;;;;;16.27;2.85;;;6.30;99.90;;;;;;4977053;28;20698;-57
2023/01/15 05:26:30;;;;;;;13.18;2.20;;;6.20;99.90;;;;;;4957678;28;20034;-56
2023/01/15 05:28:57;;;;;;;13.48;2.67;;;6.20;99.90;;;;;;4963299;28;20079;-56
2023/01/15 05:31:24;;;;;;;10.23;1.90;;;6.20;99.90;;;;;;4965242;28;20042;-57
2023/01/15 05:33:51;;;;;;;9.38;1.88;;;6.20;99.90;;;;;;4993397;28;20045;-57
2023/01/15 05:36:20;;;;;;;12.85;1.85;;;6.20;99.90;;;;;;4990192;28;20084;-57
2023/01/15 05:38:46;;;;;;;10.98;2.33;;;6.20;99.90;;;;;;4964823;28;20072;-56
2023/01/15 05:44:02;;;;;;;9.25;1.90;;;6.10;99.90;;;;;;4979496;28;20074;-58
2023/01/15 05:46:28;;;;;;;14.43;2.40;;;6.10;99.90;;;;;;4963996;28;20235;-57
2023/01/15 05:48:54;;;;;;;16.50;3.17;;;6.10;99.90;;;;;;4962304;28;20046;-58
2023/01/15 05:51:20;;;;;;;15.80;2.17;;;6.10;99.90;;;;;;4965417;28;20054;-58
2023/01/15 05:53:45;;;;;;;10.90;2.25;;;6.10;99.90;;;;;;4968450;28;20046;-58
2023/01/15 05:56:11;;;;;;;15.65;2.60;;;6.00;99.90;;;;;;4970383;28;20124;-58
2023/01/15 05:58:37;;;;;;;14.68;2.30;;;6.10;99.90;;;;;;4942822;28;20068;-58
2023/01/15 06:01:07;;;;;;;11.85;1.95;;;6.00;99.90;;;;;;4993947;28;20416;-56
2023/01/15 06:03:36;;;;;;;11.18;2.65;;;6.00;99.90;;;;;;4992692;28;20512;-54
2023/01/15 06:06:03;;;;;;;13.43;2.30;;;6.00;99.90;;;;;;4974054;28;20482;-57
2023/01/15 06:08:29;;;;;;;11.85;2.20;;;6.00;99.90;;;;;;4963044;28;20548;-58
2023/01/15 06:10:55;;;;;;;12.30;2.35;;;6.00;99.90;;;;;;4983543;28;20069;-57
2023/01/15 06:13:21;;;;;;;10.38;2.08;;;6.00;99.90;;;;;;4969917;28;20157;-57
2023/01/15 06:15:47;;;;;;;11.32;2.80;;;6.10;99.90;;;;;;4978309;28;20037;-58
2023/01/15 06:18:13;;;;;;;12.55;1.90;;;6.00;99.90;;;;;;4970279;28;20281;-58
2023/01/15 06:20:40;;;;;;;15.85;2.17;;;6.00;99.90;;;;;;4966500;28;20572;-58
2023/01/15 06:23:07;;;;;;;9.23;1.77;;;6.10;99.90;;;;;;4968493;28;20042;-58
2023/01/15 06:25:35;;;;;;;19.33;2.00;;;6.10;99.90;;;;;;4997396;28;20084;-58
2023/01/15 06:28:06;;;;;;;12.80;2.17;;;6.00;99.90;;;;;;4968404;28;20766;-58
2023/01/15 06:30:33;;;;;;;14.13;2.20;;;6.10;99.90;;;;;;4990469;28;20034;-57
2023/01/15 06:32:59;;;;;;;10.25;2.15;;;6.10;99.90;;;;;;4983140;28;20082;-58
2023/01/15 06:35:25;;;;;;;11.80;2.67;;;6.10;99.90;;;;;;4970137;28;20069;-58
2023/01/15 06:37:51;;;;;;;8.73;1.92;;;6.10;99.90;;;;;;4963207;28;20073;-56
2023/01/15 06:40:17;;;;;;;13.07;2.13;;;6.00;99.90;;;;;;4958123;28;20477;-57
2023/01/15 06:48:20;;;;;;;18.25;3.30;;;6.00;99.90;;;;;;4966975;28;20167;-58
2023/01/15 06:50:45;;;;;;;17.13;2.20;;;6.00;99.90;;;;;;4973153;28;20061;-58
2023/01/15 06:53:12;;;;;;;8.07;1.70;;;6.00;99.90;;;;;;4961920;28;20042;-58
2023/01/15 06:55:38;;;;;;;16.48;2.83;;;5.90;99.90;;;;;;4961426;28;20046;-58
2023/01/15 06:58:04;;;;;;;12.27;2.20;;;5.90;99.90;;;;;;4971522;28;20056;-58
2023/01/15 07:00:30;;;;;;;13.20;2.45;;;5.90;99.90;;;;;;4999143;28;20045;-58
2023/01/15 07:02:59;;;;;;;10.98;2.17;;;5.90;99.90;;;;;;4968569;28;20061;-58
2023/01/15 07:05:25;;;;;;;14.48;1.95;;;6.00;99.90;;;;;;4969810;28;20207;-57
2023/01/15 07:07:50;;;;;;;10.60;1.75;;;5.90;99.90;;;;;;4963978;28;20045;-57
2023/01/15 07:10:16;;;;;;;9.35;1.75;;;6.00;99.90;;;;;;4985236;28;20352;-57
2023/01/15 07:12:42;;;;;;;14.05;2.10;;;6.00;99.90;;;;;;4966721;28;20097;-58
2023/01/15 07:15:08;;;;;;;8.23;1.85;;;6.00;99.90;;;;;;4951142;28;20049;-57
2023/01/15 07:17:34;;;;;;;12.88;2.10;;;6.00;99.90;;;;;;4964441;28;20604;-56
2023/01/15 07:20:00;;;;;;;10.48;1.42;;;6.00;99.90;;;;;;4960838;28;20054;-55
2023/01/15 07:22:26;;;;;;;15.70;2.58;;;6.10;99.90;;;;;;4965262;28;20145;-57
2023/01/15 07:24:51;;;;;;;18.98;4.03;;;6.10;99.90;;;;;;4977740;28;20093;-54
2023/01/15 07:27:20;;;;;;;8.43;1.95;;;6.10;99.90;;;;;;4967100;28;20057;-56
2023/01/15 07:29:46;;;;;;;15.57;2.85;;;6.10;99.90;;;;;;4966250;28;20108;-54
2023/01/15 07:32:12;;;;;;;9.60;1.60;;;6.10;99.90;;;;;;4963489;28;20082;-58
2023/01/15 07:34:38;;;;;;;7.80;1.90;;;6.10;99.90;;;;;;4992353;28;20042;-58
2023/01/15 07:37:04;;;;;;;11.70;2.47;;;6.10;99.90;;;;;;4966642;28;20046;-57
2023/01/15 07:39:30;;;;;;;9.85;2.22;;;6.10;99.90;;;;;;4968600;28;20141;-55
2023/01/15 07:50:15;;;;;;;12.38;2.90;;;6.10;99.90;;;;;;4997542;28;20046;-58
2023/01/15 07:52:41;;;;;;;14.68;1.48;;;6.10;99.90;;;;;;4994537;28;20627;-58
2023/01/15 07:55:08;;;;;;;10.07;2.80;;;6.00;99.90;;;;;;4968669;28;20054;-58
2023/01/15 07:57:33;;;;;;;9.05;2.45;;;6.00;99.90;;;;;;4978398;28;20045;-58
2023/01/15 07:59:59;;;;;;;14.50;3.00;;;6.10;99.90;;;;;;4937431;28;20046;-58
2023/01/15 08:02:26;;;;;;;14.77;2.17;;;6.00;99.90;;;;;;4983359;28;20406;-57
2023/01/15 08:04:52;;;;;;;17.17;2.20;;;6.10;99.90;;;;;;4990491;28;20101;-56
2023/01/15 08:07:17;;;;;;;8.93;1.80;;;6.10;99.90;;;;;;4980143;28;20498;-55
2023/01/15 08:09:43;;;;;;;10.93;1.65;;;6.10;99.90;;;;;;4992530;28;20129;-55
2023/01/15 08:15:13;;;;;;;15.55;2.00;;;6.10;99.90;;;;;;4964945;28;20054;-57
2023/01/15 08:17:41;;;;;;;9.80;1.67;;;6.10;99.90;;;;;;4982132;28;20042;-57
2023/01/15 08:20:16;;;;;;;7.63;2.00;;;6.10;99.90;;;;;;4986889;28;20117;-56
2023/01/15 08:22:43;;;;;;;12.75;2.67;;;6.10;99.90;;;;;;4983046;28;20405;-56
2023/01/15 08:25:12;;;;;;;12.73;3.95;;;6.10;99.90;;;;;;4968126;28;20056;-56
2023/01/15 08:27:39;;;;;;;13.70;2.60;;;6.10;99.90;;;;;;4965914;28;20061;-58
2023/01/15 08:30:09;;;;;;;11.73;2.20;;;6.10;99.90;;;;;;4967312;28;20401;-57
2023/01/15 08:32:35;;;;;;;9.10;2.40;;;6.10;99.90;;;;;;4970836;28;20477;-56
2023/01/15 08:35:00;;;;;;;5.22;1.80;;;6.10;99.90;;;;;;4971354;28;20053;-57
2023/01/15 08:37:26;;;;;;;14.57;3.30;;;6.00;99.90;;;;;;4954058;28;20571;-57
2023/01/15 08:39:52;;;;;;;12.93;3.17;;;6.00;99.90;;;;;;4998657;28;20519;-55
2023/01/15 08:42:21;;;;;;;12.10;3.00;;;6.00;99.90;;;;;;4972962;28;20042;-55
2023/01/15 08:44:47;;;;;;;13.07;2.55;;;6.00;99.90;;;;;;4961982;28;20125;-54
2023/01/15 08:47:15;;;;;;;12.05;2.72;;;6.00;99.90;;;;;;4969931;28;20046;-55
2023/01/15 08:49:40;;;;;;;15.18;2.80;;;6.00;99.90;;;;;;4983917;28;20038;-57
2023/01/15 08:52:06;;;;;;;15.60;3.88;;;6.00;99.90;;;;;;4995089;28;20368;-55
2023/01/15 08:54:32;;;;;;;16.38;2.10;;;6.00;99.90;;;;;;4980305;28;20085;-56
2023/01/15 08:56:59;;;;;;;13.07;2.83;;;6.10;99.90;;;;;;5000071;28;20493;-56
2023/01/15 08:59:24;;;;;;;14.55;2.22;;;6.10;99.90;;;;;;4962634;28;20595;-57
2023/01/15 09:01:50;;;;;;;15.68;2.47;;;6.00;99.90;;;;;;4978737;28;20121;-56
2023/01/15 09:04:18;;;;;;;13.52;3.08;;;6.10;99.90;;;;;;4961510;28;20077;-56
2023/01/15 09:06:45;;;;;;;19.40;2.45;;;6.10;99.90;;;;;;4994704;28;20042;-57
2023/01/15 09:09:11;;;;;;;11.35;2.80;;;6.10;99.90;;;;;;4964217;28;20117;-57
2023/01/15 09:11:39;;;;;;;11.13;2.25;;;6.10;99.90;;;;;;4996735;28;20034;-57
2023/01/15 09:14:09;;;;;;;21.75;3.42;;;6.10;99.90;;;;;;4963606;28;20050;-57
2023/01/15 09:16:36;;;;;;;16.35;2.30;;;6.20;99.90;;;;;;4961417;28;20329;-57
2023/01/15 09:19:02;;;;;;;14.10;2.63;;;6.20;99.90;;;;;;4949668;28;20402;-56
2023/01/15 09:21:28;;;;;;;11.25;2.63;;;6.10;99.90;;;;;;4957319;28;20055;-57
2023/01/15 09:23:54;;;;;;;11.45;2.33;;;6.20;99.90;;;;;;4963541;28;20046;-58
2023/01/15 09:26:29;;;;;;;11.75;2.13;;;6.30;99.90;;;;;;4967600;28;20068;-56
2023/01/15 09:28:55;;;;;;;13.68;2.75;;;6.30;99.90;;;;;;4969360;28;20049;-58
2023/01/15 09:31:22;;;;;;;17.65;2.88;;;6.50;99.90;;;;;;4959341;28;20031;-57
2023/01/15 09:33:48;;;;;;;12.25;2.42;;;6.50;99.90;;;;;;4982215;28;20046;-55
2023/01/15 09:36:16;;;;;;;9.80;2.33;;;6.50;99.90;;;;;;4965330;28;20809;-55
2023/01/15 09:38:41;;;;;;;12.10;2.25;;;6.60;99.90;;;;;;4963694;28;20417;-57
2023/01/15 09:44:02;;;;;;;15.15;3.22;;;6.70;99.90;;;;;;4956939;28;20109;-57
2023/01/15 09:47:04;;;;;;;11.82;2.20;;;6.70;99.90;;;;;;4984405;28;20038;-57
2023/01/15 09:50:04;;;;;;;16.58;2.72;;;6.70;99.90;;;;;;4946559;28;20074;-58
2023/01/15 09:52:48;;;;;;;14.93;2.35;;;6.70;99.90;;;;;;4944450;28;20466;-57
2023/01/15 09:55:26;;;;;;;19.25;2.40;;;6.70;99.90;;;;;;4961218;28;20046;-58
2023/01/15 09:57:57;;;;;;;9.40;2.42;;;6.70;99.90;;;;;;4952342;28;20112;-56
2023/01/15 10:00:26;;;;;;;12.35;2.60;;;6.80;99.90;;;;;;4960273;28;20042;-57
2023/01/15 10:03:03;;;;;;;9.70;1.95;;;6.80;99.90;;;;;;4962882;28;20627;-57
2023/01/15 10:05:36;;;;;;;13.27;2.22;;;6.90;99.90;;;;;;4954150;28;20042;-56
2023/01/15 10:08:25;;;;;;;9.68;2.00;;;7.00;99.90;;;;;;4969790;28;20061;-57
2023/01/15 10:11:16;;;;;;;10.65;1.77;;;7.00;99.90;;;;;;4966243;28;21331;-56
2023/01/15 10:13:58;;;;;;;14.05;1.98;;;6.90;99.90;;;;;;4960777;28;20409;-55
2023/01/15 10:16:27;;;;;;;8.02;2.10;;;6.70;99.90;;;;;;4982428;28;20046;-56
2023/01/15 10:18:56;;;;;;;11.90;1.77;;;6.80;99.90;;;;;;4942009;28;20589;-56
2023/01/15 10:21:29;;;;;;;11.60;1.52;;;6.80;99.90;;;;;;4969746;28;20242;-57
2023/01/15 10:24:08;;;;;;;17.08;2.40;;;6.70;99.90;;;;;;4967797;28;20041;-57
2023/01/15 10:26:52;;;;;;;9.50;1.80;;;6.70;99.90;;;;;;4984118;28;20378;-56
2023/01/15 10:29:43;;;;;;;15.48;2.38;;;6.90;99.90;;;;;;4988599;28;20048;-57
2023/01/15 10:32:37;;;;;;;12.57;2.50;;;7.00;99.90;;;;;;4992912;28;20046;-57
2023/01/15 10:35:47;;;;;;;9.45;2.20;;;7.10;99.90;;;;;;4966552;28;20512;-57
2023/01/15 10:38:31;;;;;;;9.65;2.55;;;7.40;99.90;;;;;;4954402;28;20102;-57
2023/01/15 10:40:56;;;;;;;14.48;2.47;;;7.50;99.90;;;;;;4954296;28;20152;-58
2023/01/15 10:43:34;;;;;;;13.88;2.80;;;7.60;99.90;;;;;;4983320;22;20030;-63
2023/01/15 10:46:08;;;;;;;9.50;2.00;;;7.60;99.90;;;;;;4985959;28;20523;-62
2023/01/15 10:48:46;;;;;;;17.90;2.78;;;7.70;99.90;;;;;;5012502;28;20038;-60
2023/01/15 10:51:41;;;;;;;15.60;2.10;;;7.70;99.90;;;;;;4981502;28;20399;-60
2023/01/15 10:54:11;;;;;;;9.77;2.45;;;7.80;99.90;;;;;;4967017;28;20053;-61
2023/01/15 10:56:55;;;;;;;17.25;3.42;;;7.80;99.90;;;;;;5013059;28;20041;-60
2023/01/15 10:59:33;;;;;;;20.73;3.03;;;7.80;99.90;;;;;;5002057;28;20041;-60
2023/01/15 11:02:00;;;;;;;9.60;2.40;;;7.70;99.90;;;;;;4998032;28;20496;-61
2023/01/15 11:04:30;;;;;;;12.18;2.10;;;7.60;99.90;;;;;;5003023;28;20531;-61
2023/01/15 11:06:56;;;;;;;9.95;1.52;;;7.60;99.90;;;;;;4999343;28;20496;-62
2023/01/15 11:09:33;;;;;;;14.20;2.20;;;7.50;99.90;;;;;;4987836;28;20130;-62
2023/01/15 11:20:42;;;;;;;13.65;2.70;;;7.60;99.90;;;;;;5001551;28;20536;-62
2023/01/15 11:23:10;;;;;;;11.90;2.00;;;7.60;99.90;;;;;;4996865;28;20053;-61
2023/01/15 11:25:43;;;;;;;11.85;2.75;;;7.60;99.90;;;;;;4992409;28;20038;-62
2023/01/15 11:28:14;;;;;;;10.23;2.35;;;7.60;99.90;;;;;;5004697;28;20116;-62
2023/01/15 11:30:40;;;;;;;13.10;2.65;;;7.50;99.90;;;;;;5001291;28;20160;-63
2023/01/15 11:33:23;;;;;;;11.10;2.05;;;7.50;99.90;;;;;;4997358;28;20610;-60
2023/01/15 11:35:57;;;;;;;17.13;2.85;;;7.50;99.90;;;;;;5003734;28;20500;-60
2023/01/15 11:38:45;;;;;;;16.73;2.88;;;7.40;99.90;;;;;;4999260;28;20034;-59
2023/01/15 11:52:44;;;;;;;11.55;2.30;;;6.90;99.90;;;;;;4998537;28;20045;-62
2023/01/15 11:55:16;;;;;;;16.25;3.17;;;6.80;99.90;;;;;;5005945;28;20288;-62
2023/01/15 11:57:44;;;;;;;24.15;2.78;;;6.80;99.90;;;;;;4983592;28;20045;-62
2023/01/15 12:00:27;;;;;;;9.15;2.28;;;6.60;99.90;;;;;;5001166;28;20451;-63
2023/01/15 12:03:05;;;;;;;12.73;2.70;;;6.40;99.90;;;;;;4997047;28;20045;-62
2023/01/15 12:05:34;;;;;;;9.48;1.83;;;5.90;99.90;;;;;;5000350;28;20099;-62
2023/01/15 12:08:32;;;;;;;4.95;1.10;;;5.80;99.90;;;;;;4998920;28;20103;-62
2023/01/15 12:11:24;;;;;;;10.82;1.90;;;5.80;99.90;;;;;;4984699;28;20401;-62
2023/01/15 12:14:07;;;;;;;4.68;1.15;;;5.70;99.90;;;;;;4971055;28;20078;-63
2023/01/15 12:16:36;;;;;;;7.75;1.67;;;5.80;99.90;;;;;;5014025;28;20163;-61
2023/01/15 12:19:23;;;;;;;8.57;2.10;;;5.80;99.90;;;;;;5005702;28;20033;-62
2023/01/15 12:21:52;;;;;;;11.98;2.55;;;5.90;99.90;;;;;;4997546;28;20070;-61
2023/01/15 12:24:39;;;;;;;19.25;4.50;;;6.00;99.90;;;;;;5008308;28;20037;-62
2023/01/15 12:27:20;;;;;;;11.93;2.78;;;6.00;99.90;;;;;;5006027;28;20467;-62
2023/01/15 12:29:53;;;;;;;10.52;2.55;;;6.00;99.90;;;;;;5022102;28;20045;-62
2023/01/15 12:32:30;;;;;;;15.73;3.53;;;6.10;99.90;;;;;;4996501;28;20041;-62
2023/01/15 12:35:21;;;;;;;11.10;2.53;;;6.20;99.90;;;;;;5001898;28;20069;-62
2023/01/15 12:38:03;;;;;;;12.07;2.05;;;6.20;99.90;;;;;;4962428;28;21162;-62
2023/01/15 12:40:55;;;;;;;11.05;2.80;;;6.10;99.90;;;;;;5003011;28;20087;-62
2023/01/15 12:46:17;;;;;;;12.52;2.50;;;6.10;99.90;;;;;;5003217;28;20113;-62
2023/01/15 12:48:53;;;;;;;;;;;6.20;99.90;;;;;;5009239;28;20076;-61
2023/01/15 12:51:29;;;;;;;15.18;2.85;;;6.20;99.90;;;;;;5016852;28;19924;-61
2023/01/15 12:54:01;;;;;;;10.60;2.50;;;6.20;99.90;;;;;;4985874;28;20484;-61
2023/01/15 12:56:54;;;;;;;14.15;2.45;;;6.20;99.90;;;;;;5004502;28;20053;-61
2023/01/15 12:59:35;;;;;;;14.85;3.13;;;6.30;99.90;;;;;;4998621;28;20511;-59
2023/01/15 13:02:32;;;;;;;13.98;2.67;;;6.30;99.90;;;;;;5007460;28;20111;-60
2023/01/15 13:05:11;;;;;;;14.50;2.83;;;6.30;99.90;;;;;;5003155;28;20404;-61
2023/01/15 13:08:09;;;;;;;12.82;2.83;;;6.30;99.90;;;;;;4999313;28;20381;-61
2023/01/15 13:10:37;;;;;;;16.35;2.60;;;6.30;99.90;;;;;;4976046;28;20404;-61
2023/01/15 13:13:17;;;;;;;12.52;3.00;;;6.30;99.90;;;;;;4986166;28;20046;-60
2023/01/15 13:15:58;;;;;;;11.70;2.20;;;6.30;99.90;;;;;;5005743;28;20040;-61
2023/01/15 13:18:29;;;;;;;10.68;2.58;;;6.20;99.90;;;;;;5004597;28;20045;-59
2023/01/15 13:20:59;;;;;;;20.75;3.90;;;6.30;99.90;;;;;;4999900;28;20500;-60
2023/01/15 13:23:42;;;;;;;10.30;1.73;;;6.20;99.90;;;;;;4999094;28;20034;-60
2023/01/15 13:26:36;;;;;;;7.40;0.90;;;5.50;99.90;;;;;;4997779;28;20037;-59
2023/01/15 13:29:18;;;;;;;9.52;1.20;;;4.80;99.90;;;;;;4992823;28;20849;-60
2023/01/15 13:32:02;;;;;;;2.53;0.55;;;4.50;99.90;;;;;;4997188;28;20033;-61
2023/01/15 13:34:37;;;;;;;4.75;1.17;;;4.50;99.90;;;;;;5016854;28;20049;-61
2023/01/15 13:37:15;;;;;;;5.70;1.17;;;4.60;99.90;;;;;;4990709;28;20037;-61
2023/01/15 13:39:44;;;;;;;6.22;1.20;;;4.60;99.90;;;;;;5015015;28;20168;-62
2023/01/15 13:42:31;;;;;;;12.82;2.30;;;4.80;99.90;;;;;;4986714;28;20050;-62
2023/01/15 13:45:04;;;;;;;12.82;3.28;;;5.20;99.90;;;;;;5010862;28;20366;-62
2023/01/15 13:47:34;;;;;;;17.45;2.63;;;5.40;99.90;;;;;;5009744;28;20045;-62
2023/01/15 13:50:04;;;;;;;10.18;2.50;;;5.60;99.90;;;;;;4987656;28;20052;-63
2023/01/15 13:52:35;;;;;;;14.77;2.42;;;5.70;99.90;;;;;;5008455;28;20044;-62
2023/01/15 13:55:15;;;;;;;13.88;2.28;;;5.90;99.90;;;;;;5027051;28;20045;-62
2023/01/15 13:57:42;;;;;;;15.52;2.90;;;6.00;99.90;;;;;;5007094;28;20125;-62
2023/01/15 14:00:30;;;;;;;14.77;3.25;;;6.10;99.90;;;;;;5006500;28;20101;-62
2023/01/15 14:02:58;;;;;;;17.95;3.22;;;6.10;99.90;;;;;;4978895;28;20041;-61
2023/01/15 14:05:34;;;;;;;14.32;2.67;;;6.20;99.90;;;;;;5014453;28;20037;-61
2023/01/15 14:08:13;;;;;;;17.38;3.80;;;6.30;99.90;;;;;;5008971;28;20072;-61